createdAt,value
2023-01-12T00:01:54.364Z,10.80
2023-01-12T00:04:21.710Z,10.80
2023-01-12T00:06:49.069Z,10.80
2023-01-12T00:09:16.572Z,10.80
2023-01-12T00:11:44.073Z,10.80
2023-01-12T00:14:11.408Z,10.80
2023-01-12T00:16:39.150Z,10.90
2023-01-12T00:19:18.431Z,10.90
2023-01-12T00:22:09.515Z,10.80
2023-01-12T00:24:39.287Z,10.90
2023-01-12T00:27:10.747Z,10.90
2023-01-12T00:29:38.342Z,10.90
2023-01-12T00:32:06.917Z,10.90
2023-01-12T00:34:34.201Z,10.90
2023-01-12T00:37:01.916Z,10.90
2023-01-12T00:39:29.387Z,10.80
2023-01-12T00:42:14.805Z,10.90
2023-01-12T00:45:00.718Z,10.90
2023-01-12T00:47:27.927Z,10.90
2023-01-12T00:49:55.222Z,10.90
2023-01-12T00:52:30.951Z,10.90
2023-01-12T00:54:59.638Z,10.90
2023-01-12T00:57:28.017Z,10.90
2023-01-12T00:59:57.903Z,10.90
2023-01-12T01:02:26.862Z,11.00
2023-01-12T01:04:54.483Z,10.90
2023-01-12T01:07:21.955Z,10.90
2023-01-12T01:09:49.892Z,10.90
2023-01-12T01:12:17.665Z,10.90
2023-01-12T01:14:46.349Z,10.90
2023-01-12T01:17:13.671Z,10.90
2023-01-12T01:19:40.876Z,10.90
2023-01-12T01:22:08.201Z,10.90
2023-01-12T01:24:35.491Z,10.90
2023-01-12T01:27:02.798Z,10.90
2023-01-12T01:29:30.055Z,10.90
2023-01-12T01:31:57.524Z,10.90
2023-01-12T01:34:24.801Z,10.90
2023-01-12T01:36:52.055Z,10.90
2023-01-12T01:39:20.406Z,11.00
2023-01-12T01:41:48.186Z,11.00
2023-01-12T01:44:30.476Z,11.00
2023-01-12T01:47:00.388Z,11.00
2023-01-12T01:49:32.848Z,11.00
2023-01-12T01:52:06.123Z,11.00
2023-01-12T01:54:37.654Z,11.00
2023-01-12T01:57:05.833Z,11.00
2023-01-12T01:59:36.137Z,11.00
2023-01-12T02:02:04.001Z,11.00
2023-01-12T02:04:31.937Z,11.00
2023-01-12T02:07:02.139Z,11.00
2023-01-12T02:09:30.782Z,11.00
2023-01-12T02:12:16.595Z,11.00
2023-01-12T02:15:05.645Z,11.00
2023-01-12T02:18:14.607Z,11.10
2023-01-12T02:20:56.838Z,11.10
2023-01-12T02:23:59.425Z,11.10
2023-01-12T02:27:08.121Z,11.10
2023-01-12T02:29:35.278Z,11.10
2023-01-12T02:32:07.435Z,11.10
2023-01-12T02:34:57.661Z,11.10
2023-01-12T02:37:30.162Z,11.10
2023-01-12T02:40:01.063Z,11.10
2023-01-12T02:42:54.864Z,11.10
2023-01-12T02:46:00.450Z,11.10
2023-01-12T02:48:58.007Z,11.10
2023-01-12T02:51:25.160Z,11.10
2023-01-12T02:54:08.900Z,11.10
2023-01-12T02:56:45.832Z,11.00
2023-01-12T02:59:19.179Z,11.10
2023-01-12T03:01:51.197Z,11.10
2023-01-12T03:04:20.408Z,11.00
2023-01-12T03:06:56.756Z,11.10
2023-01-12T03:09:39.404Z,11.00
2023-01-12T03:12:13.940Z,11.10
2023-01-12T03:14:48.978Z,11.00
2023-01-12T03:17:43.426Z,11.00
2023-01-12T03:20:30.738Z,11.00
2023-01-12T03:23:11.690Z,11.00
2023-01-12T03:25:42.268Z,11.00
2023-01-12T03:28:13.322Z,10.90
2023-01-12T03:30:45.931Z,10.90
2023-01-12T03:33:13.742Z,10.90
2023-01-12T03:36:18.727Z,10.80
2023-01-12T03:39:11.401Z,10.90
2023-01-12T03:41:56.199Z,10.90
2023-01-12T03:44:40.930Z,10.80
2023-01-12T03:47:17.625Z,10.80
2023-01-12T03:49:53.223Z,10.80
2023-01-12T03:52:22.571Z,10.80
2023-01-12T03:54:51.636Z,10.80
2023-01-12T03:57:20.833Z,10.80
2023-01-12T03:59:48.110Z,10.80
2023-01-12T04:02:15.562Z,10.80
2023-01-12T04:04:42.870Z,10.80
2023-01-12T04:07:10.107Z,10.80
2023-01-12T04:09:37.620Z,10.70
2023-01-12T04:12:10.676Z,10.70
2023-01-12T04:14:39.280Z,10.70
2023-01-12T04:17:08.141Z,10.70
2023-01-12T04:19:35.326Z,10.60
2023-01-12T04:22:20.983Z,10.60
2023-01-12T04:24:48.680Z,10.70
2023-01-12T04:27:17.024Z,10.70
2023-01-12T04:29:45.285Z,10.70
2023-01-12T04:32:12.502Z,10.70
2023-01-12T04:34:39.760Z,10.70
2023-01-12T04:37:07.112Z,10.60
2023-01-12T04:39:34.376Z,10.70
2023-01-12T04:42:01.606Z,10.70
2023-01-12T04:44:28.837Z,10.70
2023-01-12T04:46:56.066Z,10.70
2023-01-12T04:49:23.282Z,10.70
2023-01-12T04:51:50.469Z,10.70
2023-01-12T04:54:17.727Z,10.70
2023-01-12T04:56:44.971Z,10.70
2023-01-12T04:59:12.242Z,10.70
2023-01-12T05:01:39.609Z,10.70
2023-01-12T05:04:08.018Z,10.70
2023-01-12T05:06:35.714Z,10.70
2023-01-12T05:09:21.395Z,10.70
2023-01-12T05:11:48.679Z,10.60
2023-01-12T05:14:18.675Z,10.60
2023-01-12T05:16:45.980Z,10.60
2023-01-12T05:19:13.273Z,10.60
2023-01-12T05:21:40.515Z,10.60
2023-01-12T05:24:08.728Z,10.60
2023-01-12T05:26:35.960Z,10.60
2023-01-12T05:29:03.203Z,10.60
2023-01-12T05:31:30.409Z,10.60
2023-01-12T05:33:57.663Z,10.60
2023-01-12T05:36:26.520Z,10.60
2023-01-12T05:38:53.862Z,10.60
2023-01-12T05:41:22.920Z,10.50
2023-01-12T05:43:50.260Z,10.50
2023-01-12T05:46:26.303Z,10.50
2023-01-12T05:48:55.048Z,10.50
2023-01-12T05:51:24.420Z,10.40
2023-01-12T05:53:52.049Z,10.40
2023-01-12T05:56:21.915Z,10.40
2023-01-12T05:58:58.379Z,10.40
2023-01-12T06:01:26.308Z,10.40
2023-01-12T06:03:57.327Z,10.40
2023-01-12T06:06:26.255Z,10.40
2023-01-12T06:08:54.104Z,10.30
2023-01-12T06:11:40.659Z,10.30
2023-01-12T06:14:09.136Z,10.30
2023-01-12T06:16:42.300Z,10.30
2023-01-12T06:19:13.525Z,10.30
2023-01-12T06:21:40.862Z,10.30
2023-01-12T06:24:09.020Z,10.30
2023-01-12T06:26:36.271Z,10.30
2023-01-12T06:29:06.857Z,10.30
2023-01-12T06:31:34.505Z,10.20
2023-01-12T06:34:01.861Z,10.20
2023-01-12T06:36:29.146Z,10.20
2023-01-12T06:38:56.368Z,10.20
2023-01-12T06:41:43.281Z,10.20
2023-01-12T06:44:10.551Z,10.10
2023-01-12T06:46:37.932Z,10.10
2023-01-12T06:49:05.504Z,10.10
2023-01-12T06:51:32.861Z,10.10
2023-01-12T06:54:01.389Z,10.10
2023-01-12T06:56:29.011Z,10.10
2023-01-12T06:58:56.507Z,10.10
2023-01-12T07:01:25.141Z,10.10
2023-01-12T07:03:53.171Z,10.10
2023-01-12T07:06:20.687Z,10.10
2023-01-12T07:08:47.991Z,10.10
2023-01-12T07:11:16.916Z,10.20
2023-01-12T07:13:44.254Z,10.20
2023-01-12T07:16:12.659Z,10.20
2023-01-12T07:18:40.078Z,10.20
2023-01-12T07:21:08.853Z,10.20
2023-01-12T07:23:37.736Z,10.20
2023-01-12T07:26:05.133Z,10.20
2023-01-12T07:28:33.789Z,10.20
2023-01-12T07:31:03.051Z,10.20
2023-01-12T07:33:31.062Z,10.20
2023-01-12T07:35:59.841Z,10.20
2023-01-12T07:38:30.782Z,10.20
2023-01-12T07:41:02.491Z,10.20
2023-01-12T07:43:30.420Z,10.20
2023-01-12T07:45:58.777Z,10.20
2023-01-12T07:48:27.349Z,10.30
2023-01-12T07:50:54.712Z,10.30
2023-01-12T07:53:22.182Z,10.30
2023-01-12T07:55:49.467Z,10.40
2023-01-12T07:58:16.752Z,10.40
2023-01-12T08:00:43.983Z,10.40
2023-01-12T08:03:13.950Z,10.50
2023-01-12T08:05:41.832Z,10.50
2023-01-12T08:08:09.475Z,10.50
2023-01-12T08:10:37.012Z,10.50
2023-01-12T08:13:04.497Z,10.60
2023-01-12T08:15:36.204Z,10.60
2023-01-12T08:18:38.754Z,10.60
2023-01-12T08:21:10.551Z,10.70
2023-01-12T08:23:45.877Z,10.70
2023-01-12T08:26:19.409Z,10.70
2023-01-12T08:28:55.576Z,10.70
2023-01-12T08:31:25.136Z,10.80
2023-01-12T08:33:54.499Z,10.80
2023-01-12T08:36:22.730Z,10.80
2023-01-12T08:38:50.381Z,10.80
2023-01-12T08:41:32.643Z,10.90
2023-01-12T08:44:11.886Z,10.90
2023-01-12T08:46:49.624Z,10.90
2023-01-12T08:49:18.498Z,10.90
2023-01-12T08:51:46.620Z,10.90
2023-01-12T08:54:17.878Z,10.90
2023-01-12T08:56:45.844Z,11.00
2023-01-12T08:59:13.584Z,11.00
2023-01-12T09:01:41.018Z,11.00
2023-01-12T09:04:08.974Z,11.10
2023-01-12T09:06:39.797Z,11.10
2023-01-12T09:09:10.080Z,11.10
2023-01-12T09:11:39.274Z,11.10
2023-01-12T09:14:06.751Z,11.10
2023-01-12T09:16:34.462Z,11.20
2023-01-12T09:19:02.033Z,11.20
2023-01-12T09:21:30.681Z,11.20
2023-01-12T09:23:58.289Z,11.20
2023-01-12T09:26:31.626Z,11.30
2023-01-12T09:29:04.286Z,11.30
2023-01-12T09:31:32.889Z,11.30
2023-01-12T09:34:00.646Z,11.30
2023-01-12T09:36:30.566Z,11.30
2023-01-12T09:38:58.302Z,11.30
2023-01-12T09:41:50.533Z,11.30
2023-01-12T09:44:59.195Z,11.40
2023-01-12T09:47:53.433Z,11.40
2023-01-12T09:50:33.589Z,11.40
2023-01-12T09:53:26.055Z,11.40
2023-01-12T09:56:14.087Z,11.50
2023-01-12T09:59:09.074Z,11.50
2023-01-12T10:01:37.097Z,11.50
2023-01-12T10:04:05.455Z,11.50
2023-01-12T10:06:34.729Z,11.50
2023-01-12T10:09:18.268Z,11.60
2023-01-12T10:12:06.070Z,11.60
2023-01-12T10:14:33.372Z,11.60
2023-01-12T10:17:19.514Z,11.60
2023-01-12T10:20:19.417Z,11.60
2023-01-12T10:23:11.577Z,11.60
2023-01-12T10:25:47.413Z,11.60
2023-01-12T10:28:29.941Z,11.70
2023-01-12T10:30:58.687Z,11.60
2023-01-12T10:33:29.012Z,11.70
2023-01-12T10:36:05.246Z,11.70
2023-01-12T10:38:38.543Z,11.70
2023-01-12T10:41:16.976Z,11.80
2023-01-12T10:43:46.875Z,11.80
2023-01-12T10:46:22.382Z,11.80
2023-01-12T10:48:56.415Z,11.90
2023-01-12T10:51:29.574Z,11.80
2023-01-12T10:54:02.300Z,11.90
2023-01-12T10:56:36.334Z,11.90
2023-01-12T10:59:12.139Z,11.90
2023-01-12T11:02:05.393Z,11.90
2023-01-12T11:04:47.760Z,12.00
2023-01-12T11:07:19.421Z,12.00
2023-01-12T11:09:46.696Z,12.00
2023-01-12T11:12:31.035Z,12.00
2023-01-12T11:15:03.054Z,12.10
2023-01-12T11:17:48.845Z,12.00
2023-01-12T11:20:34.263Z,12.00
2023-01-12T11:23:05.306Z,12.10
2023-01-12T11:25:53.166Z,12.10
2023-01-12T11:28:43.755Z,12.10
2023-01-12T11:31:23.780Z,12.10
2023-01-12T11:33:55.202Z,12.10
2023-01-12T11:36:30.510Z,12.10
2023-01-12T11:39:07.917Z,12.20
2023-01-12T11:41:41.189Z,12.20
2023-01-12T11:44:30.720Z,12.20
2023-01-12T11:47:12.990Z,12.20
2023-01-12T11:50:24.729Z,12.20
2023-01-12T11:52:53.318Z,12.30
2023-01-12T11:55:58.036Z,12.30
2023-01-12T11:58:53.392Z,12.30
2023-01-12T12:01:37.121Z,12.40
2023-01-12T12:04:21.527Z,12.40
2023-01-12T12:07:01.033Z,12.40
2023-01-12T12:09:34.409Z,12.50
2023-01-12T12:12:12.035Z,12.50
2023-01-12T12:14:57.023Z,12.50
2023-01-12T12:17:33.792Z,12.50
2023-01-12T12:20:03.892Z,12.50
2023-01-12T12:22:49.962Z,12.50
2023-01-12T12:26:12.491Z,12.50
2023-01-12T12:28:48.728Z,12.50
2023-01-12T12:31:41.611Z,12.60
2023-01-12T12:34:19.124Z,12.50
2023-01-12T12:37:07.692Z,12.50
2023-01-12T12:40:00.607Z,12.50
2023-01-12T12:43:07.776Z,12.50
2023-01-12T12:45:43.322Z,12.40
2023-01-12T12:48:15.973Z,12.40
2023-01-12T12:51:07.928Z,12.40
2023-01-12T12:53:40.874Z,12.40
2023-01-12T12:56:11.578Z,12.40
2023-01-12T12:58:44.546Z,12.40
2023-01-12T13:01:27.391Z,12.40
2023-01-12T13:04:00.259Z,12.40
2023-01-12T13:06:34.278Z,12.40
2023-01-12T13:09:23.303Z,12.40
2023-01-12T13:11:54.832Z,12.30
2023-01-12T13:14:28.478Z,12.30
2023-01-12T13:17:03.657Z,12.30
2023-01-12T13:19:43.658Z,12.30
2023-01-12T13:22:29.046Z,12.40
2023-01-12T13:24:57.557Z,12.40
2023-01-12T13:27:47.786Z,12.40
2023-01-12T13:30:51.642Z,12.30
2023-01-12T13:33:25.653Z,12.30
2023-01-12T13:35:52.938Z,12.30
2023-01-12T13:38:29.037Z,12.30
2023-01-12T13:41:14.852Z,12.30
2023-01-12T13:43:52.078Z,12.40
2023-01-12T13:46:34.981Z,12.40
2023-01-12T13:49:02.860Z,12.40
2023-01-12T13:51:42.434Z,12.40
2023-01-12T13:54:15.558Z,12.40
2023-01-12T13:56:52.394Z,12.40
2023-01-12T13:59:19.676Z,12.40
2023-01-12T14:01:48.701Z,12.40
2023-01-12T14:04:22.807Z,12.40
2023-01-12T14:07:05.361Z,12.40
2023-01-12T14:09:50.198Z,12.40
2023-01-12T14:12:23.636Z,12.40
2023-01-12T14:15:34.647Z,12.40
2023-01-12T14:18:25.806Z,12.40
2023-01-12T14:20:55.197Z,12.40
2023-01-12T14:23:27.333Z,12.40
2023-01-12T14:26:09.932Z,12.40
2023-01-12T14:28:39.182Z,12.40
2023-01-12T14:31:09.136Z,12.40
2023-01-12T14:33:38.403Z,12.40
2023-01-12T14:36:18.115Z,12.40
2023-01-12T14:38:46.035Z,12.40
2023-01-12T14:41:43.816Z,12.40
2023-01-12T14:44:44.179Z,12.40
2023-01-12T14:47:27.400Z,12.40
2023-01-12T14:49:55.049Z,12.40
2023-01-12T14:52:33.143Z,12.40
2023-01-12T14:55:16.864Z,12.30
2023-01-12T14:57:49.281Z,12.40
2023-01-12T15:00:25.280Z,12.30
2023-01-12T15:02:55.960Z,12.30
2023-01-12T15:05:26.565Z,12.30
2023-01-12T15:08:03.772Z,12.30
2023-01-12T15:10:41.776Z,12.30
2023-01-12T15:13:35.281Z,12.30
2023-01-12T15:16:22.942Z,12.30
2023-01-12T15:19:09.377Z,12.30
2023-01-12T15:21:56.378Z,12.30
2023-01-12T15:24:47.580Z,12.30
2023-01-12T15:27:18.009Z,12.30
2023-01-12T15:29:45.733Z,12.30
2023-01-12T15:32:20.462Z,12.40
2023-01-12T15:34:48.115Z,12.40
2023-01-12T15:37:17.491Z,12.30
2023-01-12T15:39:45.714Z,12.40
2023-01-12T15:42:17.587Z,12.40
2023-01-12T15:44:46.075Z,12.40
2023-01-12T15:47:14.737Z,12.40
2023-01-12T15:49:44.253Z,12.40
2023-01-12T15:52:17.486Z,12.40
2023-01-12T15:54:44.875Z,12.40
2023-01-12T15:57:14.049Z,12.40
2023-01-12T15:59:41.641Z,12.40
2023-01-12T16:02:30.907Z,12.40
2023-01-12T16:04:59.642Z,12.30
2023-01-12T16:07:26.980Z,12.40
2023-01-12T16:09:55.651Z,12.40
2023-01-12T16:12:24.275Z,12.40
2023-01-12T16:14:51.881Z,12.40
2023-01-12T16:17:19.163Z,12.40
2023-01-12T16:19:46.434Z,12.40
2023-01-12T16:22:20.853Z,12.40
2023-01-12T16:24:49.020Z,12.40
2023-01-12T16:27:17.939Z,12.50
2023-01-12T16:29:45.423Z,12.50
2023-01-12T16:32:12.855Z,12.50
2023-01-12T16:34:40.778Z,12.50
2023-01-12T16:37:13.582Z,12.50
2023-01-12T16:39:41.860Z,12.50
2023-01-12T16:42:09.707Z,12.50
2023-01-12T16:44:38.837Z,12.50
2023-01-12T16:47:15.131Z,12.50
2023-01-12T16:49:43.017Z,12.50
2023-01-12T16:52:15.011Z,12.50
2023-01-12T16:54:42.744Z,12.50
2023-01-12T16:57:11.359Z,12.50
2023-01-12T16:59:38.923Z,12.50
2023-01-12T17:02:08.349Z,12.50
2023-01-12T17:04:37.705Z,12.50
2023-01-12T17:07:06.730Z,12.50
2023-01-12T17:09:35.591Z,12.50
2023-01-12T17:12:02.964Z,12.50
2023-01-12T17:14:33.521Z,12.50
2023-01-12T17:17:04.718Z,12.60
2023-01-12T17:19:33.943Z,12.60
2023-01-12T17:22:02.234Z,12.50
2023-01-12T17:24:31.381Z,12.60
2023-01-12T17:26:58.951Z,12.60
2023-01-12T17:29:27.678Z,12.50
2023-01-12T17:31:58.549Z,12.50
2023-01-12T17:34:29.562Z,12.60
2023-01-12T17:36:59.862Z,12.60
2023-01-12T17:39:27.214Z,12.60
2023-01-12T17:42:13.076Z,12.60
2023-01-12T17:44:40.433Z,12.60
2023-01-12T17:47:07.704Z,12.60
2023-01-12T17:49:35.002Z,12.60
2023-01-12T17:52:02.396Z,12.60
2023-01-12T17:54:29.776Z,12.60
2023-01-12T17:56:57.404Z,12.60
2023-01-12T17:59:24.819Z,12.60
2023-01-12T18:01:52.242Z,12.60
2023-01-12T18:04:19.884Z,12.60
2023-01-12T18:06:47.725Z,12.60
2023-01-12T18:09:15.255Z,12.60
2023-01-12T18:11:42.864Z,12.60
2023-01-12T18:14:11.361Z,12.60
2023-01-12T18:16:39.271Z,12.60
2023-01-12T18:19:08.861Z,12.50
2023-01-12T18:21:36.371Z,12.50
2023-01-12T18:24:03.874Z,12.50
2023-01-12T18:26:35.734Z,12.40
2023-01-12T18:29:05.692Z,12.40
2023-01-12T18:31:37.341Z,12.40
2023-01-12T18:34:07.518Z,12.40
2023-01-12T18:36:37.732Z,12.40
2023-01-12T18:39:07.215Z,12.40
2023-01-12T18:41:55.082Z,12.40
2023-01-12T18:44:23.670Z,12.40
2023-01-12T18:47:09.288Z,12.40
2023-01-12T18:49:37.450Z,12.40
2023-01-12T18:52:23.721Z,12.40
2023-01-12T18:54:54.724Z,12.40
2023-01-12T18:57:24.566Z,12.40
2023-01-12T18:59:55.286Z,12.40
2023-01-12T19:02:22.800Z,12.40
2023-01-12T19:04:50.481Z,12.40
2023-01-12T19:07:28.375Z,12.40
2023-01-12T19:09:56.539Z,12.40
2023-01-12T19:12:24.159Z,12.40
2023-01-12T19:15:11.332Z,12.40
2023-01-12T19:17:41.829Z,12.40
2023-01-12T19:20:15.853Z,12.40
2023-01-12T19:23:01.980Z,12.40
2023-01-12T19:25:48.394Z,12.40
2023-01-12T19:28:32.849Z,12.40
2023-01-12T19:31:01.655Z,12.50
2023-01-12T19:33:29.261Z,12.40
2023-01-12T19:35:56.718Z,12.40
2023-01-12T19:38:24.248Z,12.50
2023-01-12T19:40:53.935Z,12.40
2023-01-12T19:43:26.141Z,12.50
2023-01-12T19:45:58.183Z,12.40
2023-01-12T19:48:27.020Z,12.40
2023-01-12T19:50:54.548Z,12.40
2023-01-12T19:53:25.941Z,12.40
2023-01-12T19:55:53.244Z,12.40
2023-01-12T19:58:22.600Z,12.30
2023-01-12T20:00:50.287Z,12.30
2023-01-12T20:03:19.940Z,12.30
2023-01-12T20:05:51.006Z,12.30
2023-01-12T20:08:20.526Z,12.30
2023-01-12T20:10:56.876Z,12.30
2023-01-12T20:13:24.391Z,12.30
2023-01-12T20:15:52.978Z,12.30
2023-01-12T20:18:20.465Z,12.30
2023-01-12T20:20:48.331Z,12.30
2023-01-12T20:23:15.922Z,12.30
2023-01-12T20:25:44.743Z,12.30
2023-01-12T20:28:15.305Z,12.30
2023-01-12T20:30:43.535Z,12.30
2023-01-12T20:33:11.634Z,12.30
2023-01-12T20:35:44.195Z,12.30
2023-01-12T20:38:15.559Z,12.30
2023-01-12T20:40:44.833Z,12.30
2023-01-12T20:43:12.554Z,12.30
2023-01-12T20:45:41.753Z,12.30
2023-01-12T20:48:11.337Z,12.30
2023-01-12T20:50:45.445Z,12.30
2023-01-12T20:53:13.733Z,12.30
2023-01-12T20:55:48.864Z,12.30
2023-01-12T20:58:17.104Z,12.30
2023-01-12T21:00:44.804Z,12.30
2023-01-12T21:03:12.171Z,12.30
2023-01-12T21:05:43.863Z,12.40
2023-01-12T21:08:11.370Z,12.30
2023-01-12T21:10:40.608Z,12.30
2023-01-12T21:13:08.163Z,12.30
2023-01-12T21:15:35.343Z,12.30
2023-01-12T21:18:02.621Z,12.30
2023-01-12T21:20:30.003Z,12.30
2023-01-12T21:22:57.345Z,12.30
2023-01-12T21:25:27.868Z,12.30
2023-01-12T21:27:55.868Z,12.40
2023-01-12T21:30:23.220Z,12.40
2023-01-12T21:32:50.571Z,12.40
2023-01-12T21:35:17.892Z,12.40
2023-01-12T21:37:45.187Z,12.40
2023-01-12T21:40:14.309Z,12.40
2023-01-12T21:43:00.157Z,12.40
2023-01-12T21:45:27.407Z,12.40
2023-01-12T21:47:55.427Z,12.50
2023-01-12T21:50:22.901Z,12.50
2023-01-12T21:52:50.164Z,12.50
2023-01-12T21:55:19.331Z,12.50
2023-01-12T21:57:47.819Z,12.50
2023-01-12T22:00:15.758Z,12.50
2023-01-12T22:02:43.830Z,12.50
2023-01-12T22:05:12.673Z,12.50
2023-01-12T22:07:43.000Z,12.50
2023-01-12T22:10:19.757Z,12.50
2023-01-12T22:12:48.741Z,12.50
2023-01-12T22:15:16.393Z,12.50
2023-01-12T22:17:44.248Z,12.50
2023-01-12T22:20:12.452Z,12.50
2023-01-12T22:22:40.086Z,12.50
2023-01-12T22:25:09.629Z,12.50
2023-01-12T22:27:37.490Z,12.50
2023-01-12T22:30:06.022Z,12.60
2023-01-12T22:32:33.286Z,12.60
2023-01-12T22:35:00.654Z,12.50
2023-01-12T22:37:28.798Z,12.60
2023-01-12T22:39:56.637Z,12.50
2023-01-12T22:42:44.112Z,12.50
2023-01-12T22:45:12.075Z,12.50
2023-01-12T22:47:47.771Z,12.50
2023-01-12T22:50:15.933Z,12.50
2023-01-12T22:52:43.437Z,12.50
2023-01-12T22:55:10.882Z,12.50
2023-01-12T22:57:38.678Z,12.50
2023-01-12T23:00:06.546Z,12.50
2023-01-12T23:03:09.661Z,12.50
2023-01-12T23:05:47.646Z,12.50
2023-01-12T23:08:16.681Z,12.60
2023-01-12T23:10:44.714Z,12.50
2023-01-12T23:13:20.666Z,12.60
2023-01-12T23:15:58.023Z,12.60
2023-01-12T23:18:29.180Z,12.50
2023-01-12T23:21:11.231Z,12.60
2023-01-12T23:23:39.230Z,12.60
2023-01-12T23:26:08.871Z,12.60
2023-01-12T23:28:38.853Z,12.60
2023-01-12T23:31:08.531Z,12.60
2023-01-12T23:33:36.987Z,12.60
2023-01-12T23:36:10.555Z,12.60
2023-01-12T23:38:37.859Z,12.60
2023-01-12T23:41:19.926Z,12.60
2023-01-12T23:43:49.234Z,12.60
2023-01-12T23:46:20.122Z,12.60
2023-01-12T23:48:47.565Z,12.60
2023-01-12T23:51:15.562Z,12.60
2023-01-12T23:53:42.800Z,12.60
2023-01-12T23:56:12.582Z,12.60
2023-01-12T23:58:40.145Z,12.60
